Boston, Massachusetts
Traffic Map
Current Weather Conditions
Boston, Massachusetts
Few Clouds
Few Clouds

Feels Like: 0°
Wind Chill: Ceiling: Unl
Heat Index: Visibility: 10mi
Dew Point: -4° Wind: 13mph
Humidity: 55% Direction: 320° (NW)
Pressure: 30.13in Gusts: 0mph
Raw Report DataKBOS 201254Z 32011KT 10SM FEW065 FEW100 04/M04 A3013 RMK AO2 SLP201 T00391044
Traffic Incident Summary
Active as of:
Severity:
Category:
InformationThere was an issue retrieving the traffic information for this location. Please try a different location or try again shortly.
Advertisements
Track Severe Weather on mobile